首页
METAR-TAF:

METAR-TAF

机场 :

Gore Bay, 安大略省, 加拿大

纬度: 45-53N, 经度: 082-34W, 海拔: 193米

当前天气观测

该预报发布于58分钟前的03:00 UTC
风速19节,风向西转西北,有时为27节阵风
温度 -8°C
湿度 67%
气压 1027 hPa
能見度: 14.5公里
天空无云

METAR: CYZE 120300Z AUTO 29019G27KT 9SM CLR M08/M13 A3034 RMK SLP291

时间: 22:58 (03:58 UTC)

预报

该预报发布于7小时和54分钟前的20:04 UTC
预报有效从11日的 20点(UTC)到 11日的 23点(UTC)
风速20节,风向西,有时为30节阵风
能見度: 10公里
散云层高于3000英尺
短暂存在
从 11日的 20点(UTC)到 11日的 23点(UTC)
能見度: 1.2公里
多云层高于3000英尺
小阵雪, 高吹雪

TAF: CYZE 112004Z 1120/1123 27020G30KT P6SM SCT030 TEMPO 1120/1123 3/4SM -SHSN BLSN BKN030 RMK FCST BASED ON AUTO OBS. NXT FCST WILL BE ISSUED AT 121045Z

超过4000个机场的气象观测和天气预报(METAR&TAF报告)。

可查询的气象台以黄色和红色小点在地图上表示。

将鼠标移到小点上方,可查看气象台名称。

然后点击查看天气观测和预报。

如需切换地图:点击带黑十字的绿色按钮放大地图;点击带横线的绿色按钮缩小地图;或者点击绿色箭头查看邻近地区的地图。


METAR-TAF: